Time;durP1;ratioP1;P1;durP2;ratioP2;P2;SDS_P1;SDS_P2;PMS_P1;PMS_P2;Temp;Humidity;BMP_temperature;BMP_pressure;BME280_temperature;BME280_humidity;BME280_pressure;Samples;Min_cycle;Max_cycle;Signal;HPM_P1;HPM_P2
2019/06/05 00:01:32;;;;;;;4.9;3.1;;;;;;;19.83;59.17871;953.3718;;;;
2019/06/05 00:04:11;;;;;;;4.7;3.4;;;;;;;19.85;59.15625;953.3729;;;;
2019/06/05 00:06:38;;;;;;;4.6;3.5;;;;;;;19.87;59.19336;953.3445;;;;
2019/06/05 00:09:03;;;;;;;5.8;3.4;;;;;;;19.81;58.77539;953.3616;;;;
2019/06/05 00:11:29;;;;;;;4.8;3.3;;;;;;;19.77;59.50977;953.3419;;;;
2019/06/05 00:13:55;;;;;;;4.4;3.4;;;;;;;19.72;59.58496;953.3353;;;;
2019/06/05 00:16:20;;;;;;;4;3.3;;;;;;;19.72;59.50293;953.3137;;;;
2019/06/05 00:18:47;;;;;;;4.1;3;;;;;;;19.7;59.78223;953.2679;;;;
2019/06/05 00:21:20;;;;;;;3.6;3.1;;;;;;;19.66;58.84961;953.2673;;;;
2019/06/05 00:23:45;;;;;;;4.9;3.3;;;;;;;19.69;59.31152;953.2251;;;;
2019/06/05 00:26:10;;;;;;;5.3;3.1;;;;;;;19.61;59.73535;953.2203;;;;
2019/06/05 00:28:35;;;;;;;4.1;3.5;;;;;;;19.58;60.11914;953.173;;;;
2019/06/05 00:31:00;;;;;;;6.4;3.2;;;;;;;19.58;60.72949;953.1542;;;;
2019/06/05 00:33:25;;;;;;;5.2;2.8;;;;;;;19.6;60.81543;953.1165;;;;
2019/06/05 00:35:50;;;;;;;5.2;3.2;;;;;;;19.58;60.95313;953.1515;;;;
2019/06/05 00:38:15;;;;;;;4.7;3.2;;;;;;;19.46;60.89063;953.1564;;;;
2019/06/05 00:40:40;;;;;;;5.1;3.4;;;;;;;19.39;61.2207;953.127;;;;
2019/06/05 00:43:05;;;;;;;4.6;3.2;;;;;;;19.32;61.50391;953.1196;;;;
2019/06/05 00:45:31;;;;;;;7.3;3.6;;;;;;;19.27;61.53223;953.1365;;;;
2019/06/05 00:47:56;;;;;;;5.8;3.5;;;;;;;19.24;61.86914;953.153;;;;
2019/06/05 00:50:21;;;;;;;4.2;3;;;;;;;19.24;62.20996;953.1315;;;;
2019/06/05 00:52:55;;;;;;;3.8;3.1;;;;;;;19.19;61.84961;953.1013;;;;
2019/06/05 00:55:11;;;;;;;5.4;3.7;;;;;;;19.2;61.62793;953.0854;;;;
2019/06/05 00:57:36;;;;;;;5.6;3.9;;;;;;;19.13;62.5;953.0261;;;;
2019/06/05 01:00:01;;;;;;;5.3;3.6;;;;;;;19.09;62.5166;953.0461;;;;
2019/06/05 01:02:26;;;;;;;4.1;3.3;;;;;;;19.05;62.76953;953.0611;;;;
2019/06/05 01:04:52;;;;;;;7.3;3.6;;;;;;;19.04;63.2832;953.0499;;;;
2019/06/05 01:07:17;;;;;;;5.3;3.6;;;;;;;18.99;63.58105;953.0758;;;;
2019/06/05 01:09:43;;;;;;;4.7;3.4;;;;;;;18.97;63.2041;953.1027;;;;
2019/06/05 01:12:08;;;;;;;3.7;3.4;;;;;;;18.92;63.24512;953.093;;;;
2019/06/05 01:14:33;;;;;;;5.3;3.9;;;;;;;18.89;63.74414;953.0881;;;;
2019/06/05 01:16:58;;;;;;;4.9;3.5;;;;;;;18.89;63.2041;953.0723;;;;
2019/06/05 01:19:23;;;;;;;5.6;3.7;;;;;;;18.85;63.7373;953.117;;;;
2019/06/05 01:21:48;;;;;;;4.2;3.7;;;;;;;18.79;63.30762;953.0955;;;;
2019/06/05 01:24:13;;;;;;;5.7;3.7;;;;;;;18.8;64.11719;953.0705;;;;
2019/06/05 01:26:38;;;;;;;5.4;3.5;;;;;;;18.74;64.28516;953.0973;;;;
2019/06/05 01:29:04;;;;;;;4;3.6;;;;;;;18.77;64.11426;953.0305;;;;
2019/06/05 01:31:29;;;;;;;6.9;3.9;;;;;;;18.75;64.2041;953.0787;;;;
2019/06/05 01:33:55;;;;;;;5.4;4;;;;;;;18.74;64.12109;953.0231;;;;
2019/06/05 01:36:20;;;;;;;5;3.7;;;;;;;18.7;64.95996;953.0394;;;;
2019/06/05 01:38:47;;;;;;;6.2;4;;;;;;;18.65;65.06738;953.0019;;;;
2019/06/05 01:41:12;;;;;;;3.7;3.4;;;;;;;18.58;64.69629;952.962;;;;
2019/06/05 01:43:37;;;;;;;7.7;3.9;;;;;;;18.56;65.06738;952.9509;;;;
2019/06/05 01:46:10;;;;;;;5.7;4;;;;;;;18.57;65.22168;952.9375;;;;
2019/06/05 01:48:35;;;;;;;5;4;;;;;;;18.55;64.85547;952.887;;;;
2019/06/05 01:51:01;;;;;;;5.7;3.7;;;;;;;18.52;64.79102;952.8817;;;;
2019/06/05 01:53:26;;;;;;;4.9;3.7;;;;;;;18.56;64.66895;952.8643;;;;
2019/06/05 01:55:51;;;;;;;5.9;4.1;;;;;;;18.5;65.15332;952.85;;;;
2019/06/05 01:58:17;;;;;;;7.4;3.7;;;;;;;18.51;65.18848;952.7968;;;;
2019/06/05 02:00:42;;;;;;;5.8;4.1;;;;;;;18.45;65.05176;952.8197;;;;
2019/06/05 02:03:07;;;;;;;4.6;4.1;;;;;;;18.42;65.93652;952.846;;;;
2019/06/05 02:05:33;;;;;;;6;4.1;;;;;;;18.45;65.35645;952.8503;;;;
2019/06/05 02:07:58;;;;;;;4.8;3.9;;;;;;;18.37;65.56738;952.8474;;;;
2019/06/05 02:10:23;;;;;;;5.9;4.1;;;;;;;18.31;66.30566;952.8336;;;;
2019/06/05 02:12:49;;;;;;;4.7;3.9;;;;;;;18.37;66.09375;952.8109;;;;
2019/06/05 02:15:14;;;;;;;4.6;4.1;;;;;;;18.43;66.06738;952.8038;;;;
2019/06/05 02:17:39;;;;;;;4.4;3.8;;;;;;;18.37;66.31641;952.7996;;;;
2019/06/05 02:20:04;;;;;;;4;3.6;;;;;;;18.33;66.40527;952.7926;;;;
2019/06/05 02:22:29;;;;;;;4.5;4;;;;;;;18.34;65.91309;952.8069;;;;
2019/06/05 02:24:54;;;;;;;5;3.9;;;;;;;18.28;65.83301;952.7715;;;;
2019/06/05 02:27:19;;;;;;;6;4.2;;;;;;;18.22;66.9502;952.7952;;;;
2019/06/05 02:29:44;;;;;;;4.5;4.1;;;;;;;18.2;66.82813;952.7718;;;;
2019/06/05 02:32:09;;;;;;;5.5;4.1;;;;;;;18.09;67.09473;952.7566;;;;
2019/06/05 02:34:35;;;;;;;4.8;4.3;;;;;;;18.07;67.47656;952.8167;;;;
2019/06/05 02:37:00;;;;;;;5.9;4.2;;;;;;;17.98;67.2998;952.8613;;;;
2019/06/05 02:39:25;;;;;;;5.7;4.2;;;;;;;17.96;67.84668;952.9163;;;;
2019/06/05 02:42:03;;;;;;;5.1;4.6;;;;;;;18.01;67.45703;952.9002;;;;
2019/06/05 02:44:33;;;;;;;4.8;4.3;;;;;;;17.95;67.45898;952.8678;;;;
2019/06/05 02:47:01;;;;;;;5.2;4.7;;;;;;;17.91;67.6875;952.9269;;;;
2019/06/05 02:49:27;;;;;;;6.5;5.1;;;;;;;17.78;68.27539;952.9718;;;;
2019/06/05 02:51:52;;;;;;;7.5;4.9;;;;;;;17.77;68.19336;952.9719;;;;
2019/06/05 02:54:22;;;;;;;7.2;4.7;;;;;;;17.81;68.44336;953.0066;;;;
2019/06/05 02:56:47;;;;;;;6.6;4.9;;;;;;;17.8;68.2666;953.0364;;;;
2019/06/05 02:59:12;;;;;;;6;4.7;;;;;;;17.7;68.61426;953.09;;;;
2019/06/05 03:01:37;;;;;;;5.4;4.9;;;;;;;17.62;68.69531;953.0283;;;;
2019/06/05 03:04:02;;;;;;;9.4;5.2;;;;;;;17.77;68.05176;953.0203;;;;
2019/06/05 03:06:27;;;;;;;5.9;5.2;;;;;;;17.85;68.08594;953.033;;;;
2019/06/05 03:08:52;;;;;;;7.3;5.4;;;;;;;17.9;69.4873;953.0421;;;;
2019/06/05 03:11:17;;;;;;;8.2;5.7;;;;;;;17.87;70.06836;953.0524;;;;
2019/06/05 03:13:42;;;;;;;7.1;5.4;;;;;;;17.82;70.55273;953.05;;;;
2019/06/05 03:16:07;;;;;;;7.2;5.2;;;;;;;17.73;70.84082;953.0696;;;;
2019/06/05 03:18:33;;;;;;;8.2;5.6;;;;;;;17.73;70.58398;953.0414;;;;
2019/06/05 03:20:58;;;;;;;9.3;5.6;;;;;;;17.66;70.97168;953.0496;;;;
2019/06/05 03:23:23;;;;;;;7.7;5.2;;;;;;;17.62;71.13965;953.0661;;;;
2019/06/05 03:25:48;;;;;;;8.3;5.3;;;;;;;17.64;71.31836;953.1183;;;;
2019/06/05 03:28:13;;;;;;;6.9;5.4;;;;;;;17.57;71.75098;953.1362;;;;
2019/06/05 03:30:38;;;;;;;6.6;5.1;;;;;;;17.57;71.35352;953.1609;;;;
2019/06/05 03:33:03;;;;;;;7.8;5.2;;;;;;;17.54;71.86426;953.1852;;;;
2019/06/05 03:35:28;;;;;;;7.6;5.2;;;;;;;17.51;71.96387;953.2239;;;;
2019/06/05 03:37:53;;;;;;;7.1;5.3;;;;;;;17.5;71.15625;953.252;;;;
2019/06/05 03:40:18;;;;;;;6.2;5.2;;;;;;;17.55;70.97559;953.2517;;;;
2019/06/05 03:42:43;;;;;;;7;5.1;;;;;;;17.54;70.78711;953.2068;;;;
2019/06/05 03:45:08;;;;;;;8.5;5.3;;;;;;;17.53;71.11328;953.2244;;;;
2019/06/05 03:47:33;;;;;;;7;5.3;;;;;;;17.47;71.65234;953.2106;;;;
2019/06/05 03:49:59;;;;;;;8.2;5.3;;;;;;;17.42;72.07813;953.1883;;;;
2019/06/05 03:52:24;;;;;;;10.5;5.4;;;;;;;17.47;72.09668;953.1817;;;;
2019/06/05 03:54:49;;;;;;;7.7;5.4;;;;;;;17.47;71.92188;953.152;;;;
2019/06/05 03:57:14;;;;;;;9.6;5.7;;;;;;;17.51;70.8418;953.1487;;;;
2019/06/05 03:59:39;;;;;;;7.9;5.4;;;;;;;17.51;71.51953;953.1464;;;;
2019/06/05 04:02:27;;;;;;;9.1;6;;;;;;;17.35;71.75098;953.2111;;;;
2019/06/05 04:04:52;;;;;;;6.5;5.8;;;;;;;17.41;72.1582;953.2328;;;;
2019/06/05 04:07:18;;;;;;;8.4;6.3;;;;;;;17.46;71.95508;953.3094;;;;
2019/06/05 04:09:46;;;;;;;7.2;5.5;;;;;;;17.59;70.83105;953.3987;;;;
2019/06/05 04:12:18;;;;;;;6.8;6;;;;;;;17.81;69.15723;953.5062;;;;
2019/06/05 04:14:43;;;;;;;9;6.9;;;;;;;17.78;69.15332;953.5389;;;;
2019/06/05 04:17:09;;;;;;;10.4;7.2;;;;;;;17.84;69.09082;953.527;;;;
2019/06/05 04:19:36;;;;;;;8.8;7.1;;;;;;;17.69;69.78418;953.4404;;;;
2019/06/05 04:22:04;;;;;;;8.6;7.2;;;;;;;17.61;71.53613;953.4105;;;;
2019/06/05 04:24:29;;;;;;;9;6.9;;;;;;;17.59;71.38086;953.4153;;;;
2019/06/05 04:26:54;;;;;;;10.7;6.9;;;;;;;17.51;71.69629;953.4626;;;;
2019/06/05 04:29:19;;;;;;;10.9;7.4;;;;;;;17.76;69.77051;953.5017;;;;
2019/06/05 04:31:44;;;;;;;11.8;8.2;;;;;;;17.74;69.42773;953.3589;;;;
2019/06/05 04:34:09;;;;;;;11.3;8.2;;;;;;;17.64;71.36621;953.3466;;;;
2019/06/05 04:36:40;;;;;;;11;7.9;;;;;;;17.6;71.76855;953.3383;;;;
2019/06/05 04:39:05;;;;;;;9.4;7.4;;;;;;;17.55;71.60938;953.3695;;;;
2019/06/05 04:41:31;;;;;;;10.4;7.8;;;;;;;17.58;71.31934;953.3756;;;;
2019/06/05 04:43:56;;;;;;;8.9;7.5;;;;;;;17.61;71.9082;953.4526;;;;
2019/06/05 04:46:21;;;;;;;12.4;7.9;;;;;;;17.64;72.37207;953.334;;;;
2019/06/05 04:48:46;;;;;;;9.7;7.6;;;;;;;17.74;72.30664;953.2583;;;;
2019/06/05 04:51:11;;;;;;;9.7;7.7;;;;;;;17.62;72.02832;953.2299;;;;
2019/06/05 04:53:36;;;;;;;9.4;6.9;;;;;;;17.7;71.43359;953.1468;;;;
2019/06/05 04:56:01;;;;;;;10;7.3;;;;;;;17.76;72.17969;953.121;;;;
2019/06/05 04:58:26;;;;;;;9;6.8;;;;;;;17.99;70.08691;953.1038;;;;
2019/06/05 05:00:51;;;;;;;11.9;7.6;;;;;;;18.05;69.72266;953.0463;;;;
2019/06/05 05:03:16;;;;;;;10.1;7.6;;;;;;;18.17;69.06152;953.0298;;;;
2019/06/05 05:05:45;;;;;;;10.8;7.5;;;;;;;18.24;68.1709;953.0612;;;;
2019/06/05 05:08:10;;;;;;;8.2;7.3;;;;;;;18.18;68.80469;953.0997;;;;
2019/06/05 05:10:35;;;;;;;10.6;7.3;;;;;;;18.27;69.20703;953.152;;;;
2019/06/05 05:13:00;;;;;;;8.7;7.6;;;;;;;18.25;68.98145;953.1633;;;;
2019/06/05 05:15:29;;;;;;;9.3;8.1;;;;;;;18.24;68.51074;953.2558;;;;
2019/06/05 05:17:53;;;;;;;11.2;8.6;;;;;;;18.17;67.96094;953.3333;;;;
2019/06/05 05:20:18;;;;;;;11.8;8.5;;;;;;;18.4;66.29883;953.3218;;;;
2019/06/05 05:22:43;;;;;;;8.9;7.8;;;;;;;18.51;66.3252;953.2887;;;;
2019/06/05 05:25:08;;;;;;;10.1;8.3;;;;;;;18.52;67.61621;953.2662;;;;
2019/06/05 05:27:33;;;;;;;11;8.8;;;;;;;18.45;67.73438;953.2456;;;;
2019/06/05 05:29:58;;;;;;;11.6;8;;;;;;;18.4;69.22656;953.25;;;;
2019/06/05 05:32:24;;;;;;;9.2;7.9;;;;;;;18.39;69.74121;953.2781;;;;
2019/06/05 05:34:49;;;;;;;9.1;8.2;;;;;;;18.75;64.86035;953.254;;;;
2019/06/05 05:37:14;;;;;;;9.9;8.2;;;;;;;18.65;68.26953;953.2618;;;;
2019/06/05 05:39:40;;;;;;;10.9;7.4;;;;;;;18.86;65.24121;953.2977;;;;
2019/06/05 05:42:05;;;;;;;10.4;7.8;;;;;;;18.97;64.56543;953.3019;;;;
2019/06/05 05:44:33;;;;;;;13.5;8.4;;;;;;;18.98;65.02441;953.3525;;;;
2019/06/05 05:46:58;;;;;;;11.3;8.2;;;;;;;19.08;64.79199;953.3691;;;;
2019/06/05 05:49:24;;;;;;;11.7;8.3;;;;;;;19.32;64.50977;953.4277;;;;
2019/06/05 05:51:49;;;;;;;10.3;8.1;;;;;;;19.49;63.84277;953.373;;;;
2019/06/05 05:54:14;;;;;;;11.7;9;;;;;;;19.41;63.86621;953.4155;;;;
2019/06/05 05:56:46;;;;;;;10.7;8.2;;;;;;;19.33;65.07715;953.4192;;;;
2019/06/05 05:59:11;;;;;;;8.7;7.8;;;;;;;19.4;65.88379;953.387;;;;
2019/06/05 06:01:37;;;;;;;9.1;7.9;;;;;;;19.47;64.32129;953.4568;;;;
2019/06/05 06:04:18;;;;;;;10.2;7.8;;;;;;;19.48;63.86328;953.5132;;;;
2019/06/05 06:06:52;;;;;;;9.9;7.7;;;;;;;19.59;63.66992;953.5416;;;;
2019/06/05 06:09:17;;;;;;;9.7;8.4;;;;;;;19.57;63.85449;953.4851;;;;
2019/06/05 06:11:52;;;;;;;10.3;8.2;;;;;;;19.43;63.84473;953.4191;;;;
2019/06/05 06:14:17;;;;;;;8.6;7.7;;;;;;;19.55;63.61523;953.408;;;;
2019/06/05 06:16:54;;;;;;;8.9;7.6;;;;;;;19.78;62.73242;953.3775;;;;
2019/06/05 06:19:19;;;;;;;10.5;7.8;;;;;;;19.93;62.03809;953.2656;;;;
2019/06/05 06:21:44;;;;;;;8.7;7.2;;;;;;;19.93;63.16504;953.2906;;;;
2019/06/05 06:24:09;;;;;;;7.7;6.8;;;;;;;20.11;62.17969;953.2855;;;;
2019/06/05 06:26:34;;;;;;;8;6;;;;;;;20.16;61.91602;953.3578;;;;
2019/06/05 06:28:59;;;;;;;8.7;6.5;;;;;;;20.42;61.38672;953.3791;;;;
2019/06/05 06:31:25;;;;;;;6.8;5.8;;;;;;;20.4;60.9834;953.3805;;;;
2019/06/05 06:33:50;;;;;;;8.6;6.1;;;;;;;20.61;59.58691;953.3928;;;;
2019/06/05 06:36:15;;;;;;;7.5;6.1;;;;;;;20.38;61.75781;953.377;;;;
2019/06/05 06:38:40;;;;;;;7.2;5.6;;;;;;;20.55;60.68652;953.4427;;;;
2019/06/05 06:41:05;;;;;;;9.2;6.7;;;;;;;20.56;59.92383;953.5308;;;;
2019/06/05 06:43:36;;;;;;;7.4;6.5;;;;;;;20.65;60.57031;953.5003;;;;
2019/06/05 06:46:01;;;;;;;7.4;5.5;;;;;;;20.79;61.00098;953.5066;;;;
2019/06/05 06:48:26;;;;;;;10.1;7.4;;;;;;;20.8;60.61523;953.5263;;;;
2019/06/05 06:50:58;;;;;;;11;6.8;;;;;;;20.71;61.03906;953.5148;;;;
2019/06/05 06:53:23;;;;;;;11.3;7.1;;;;;;;21.03;58.82031;953.4253;;;;
2019/06/05 06:55:48;;;;;;;12;8.2;;;;;;;21;58.65039;953.4775;;;;
2019/06/05 06:58:13;;;;;;;9.7;7.8;;;;;;;20.84;59.11328;953.4791;;;;
2019/06/05 07:00:38;;;;;;;10.3;7.2;;;;;;;21.06;59.20117;953.402;;;;
2019/06/05 07:03:03;;;;;;;12.6;7.3;;;;;;;21.29;58.96094;953.4119;;;;
2019/06/05 07:05:28;;;;;;;10.3;7.2;;;;;;;21.25;58.71875;953.425;;;;
2019/06/05 07:07:53;;;;;;;12.4;8.2;;;;;;;21.18;58.73242;953.3983;;;;
2019/06/05 07:10:18;;;;;;;12.9;8.8;;;;;;;21.41;58.8584;953.4174;;;;
2019/06/05 07:12:43;;;;;;;7.7;6.7;;;;;;;21.62;57.91797;953.4484;;;;
2019/06/05 07:15:11;;;;;;;9.1;7.6;;;;;;;21.82;57;953.4597;;;;
2019/06/05 07:17:39;;;;;;;8.5;6.9;;;;;;;21.82;57.49609;953.449;;;;
2019/06/05 07:20:06;;;;;;;7.2;6;;;;;;;21.97;57.06641;953.4504;;;;
2019/06/05 07:22:31;;;;;;;6;5.3;;;;;;;21.91;57.44824;953.5171;;;;
2019/06/05 07:24:57;;;;;;;8.9;7;;;;;;;21.98;57.37402;953.5628;;;;
2019/06/05 07:27:22;;;;;;;6.7;5.7;;;;;;;22.13;57.31055;953.5535;;;;
2019/06/05 07:29:47;;;;;;;8.1;5.8;;;;;;;22.03;57.08496;953.5634;;;;
2019/06/05 07:32:12;;;;;;;8.3;6.3;;;;;;;22.16;56.77148;953.5339;;;;
2019/06/05 07:34:37;;;;;;;5.8;5.3;;;;;;;22.2;57.40234;953.593;;;;
2019/06/05 07:37:03;;;;;;;8.5;5.4;;;;;;;22.31;57.83008;953.6228;;;;
2019/06/05 07:39:28;;;;;;;9.1;5.7;;;;;;;22.3;56.45801;953.6174;;;;
2019/06/05 07:41:53;;;;;;;7.6;5.6;;;;;;;22.31;56.60059;953.5712;;;;
2019/06/05 07:44:18;;;;;;;7.1;5.4;;;;;;;22.54;55.88672;953.5633;;;;
2019/06/05 07:46:43;;;;;;;6.5;5.5;;;;;;;22.72;56.10938;953.5867;;;;
2019/06/05 07:49:08;;;;;;;7.8;5.7;;;;;;;22.82;55.76758;953.6208;;;;
2019/06/05 07:51:33;;;;;;;10.6;6.8;;;;;;;22.74;55.7207;953.6608;;;;
2019/06/05 07:53:58;;;;;;;8.9;6.2;;;;;;;22.67;56.9082;953.6334;;;;
2019/06/05 07:56:24;;;;;;;8.5;6.6;;;;;;;22.83;56.49023;953.6838;;;;
2019/06/05 07:58:49;;;;;;;9.2;6.2;;;;;;;22.98;56.21289;953.6767;;;;
2019/06/05 08:01:14;;;;;;;7.8;7;;;;;;;22.69;56.01074;953.7206;;;;
2019/06/05 08:03:39;;;;;;;9.2;6.3;;;;;;;23.11;54.58496;953.702;;;;
2019/06/05 08:06:04;;;;;;;7.2;5.5;;;;;;;22.91;54.63086;953.7528;;;;
2019/06/05 08:08:29;;;;;;;8;5.9;;;;;;;22.99;54.35547;953.7151;;;;
2019/06/05 08:10:54;;;;;;;6.8;5.4;;;;;;;23.09;53.19629;953.7512;;;;
2019/06/05 08:13:19;;;;;;;7.2;5.9;;;;;;;23.04;52.63281;953.6967;;;;
2019/06/05 08:15:44;;;;;;;5.9;5.1;;;;;;;23.03;54.29004;953.6429;;;;
2019/06/05 08:18:09;;;;;;;7.6;5.9;;;;;;;23.1;54.37988;953.6239;;;;
2019/06/05 08:20:35;;;;;;;8.9;6.2;;;;;;;23.26;54.74414;953.6705;;;;
2019/06/05 08:23:06;;;;;;;7.7;6.5;;;;;;;23.35;54.49512;953.6403;;;;
2019/06/05 08:25:31;;;;;;;8.7;5.6;;;;;;;23.13;55.32031;953.6094;;;;
2019/06/05 08:27:56;;;;;;;9.4;7.1;;;;;;;23.19;54.38184;953.575;;;;
2019/06/05 08:30:22;;;;;;;8.9;5.4;;;;;;;23.3;55.08105;953.5648;;;;
2019/06/05 08:32:47;;;;;;;7.7;5.4;;;;;;;23.45;55.73926;953.5851;;;;
2019/06/05 08:35:12;;;;;;;10.5;6;;;;;;;23.47;54.78223;953.5947;;;;
2019/06/05 08:37:37;;;;;;;8.5;6.1;;;;;;;23.59;54.12012;953.5928;;;;
2019/06/05 08:40:02;;;;;;;12.4;6.4;;;;;;;23.58;54.35742;953.5908;;;;
2019/06/05 08:42:27;;;;;;;8.1;6.9;;;;;;;23.57;54.20117;953.537;;;;
2019/06/05 08:44:53;;;;;;;7.7;6;;;;;;;23.52;53.80371;953.5553;;;;
2019/06/05 08:47:19;;;;;;;55.4;44.1;;;;;;;23.57;55.00684;953.568;;;;
2019/06/05 08:49:44;;;;;;;11.1;8.1;;;;;;;23.61;54.60938;953.4623;;;;
2019/06/05 08:52:10;;;;;;;8.3;6.4;;;;;;;23.83;54.56445;953.5014;;;;
2019/06/05 08:54:35;;;;;;;7;6.3;;;;;;;23.83;53.6748;953.4708;;;;
2019/06/05 08:57:00;;;;;;;13.5;7.5;;;;;;;23.84;54.0918;953.4503;;;;
2019/06/05 08:59:25;;;;;;;8.3;6.8;;;;;;;23.81;56.16406;953.4373;;;;
2019/06/05 09:01:50;;;;;;;8.5;6.1;;;;;;;23.84;56.32129;953.4146;;;;
2019/06/05 09:04:15;;;;;;;9.8;6.8;;;;;;;23.97;55.49609;953.428;;;;
2019/06/05 09:06:40;;;;;;;8.7;6.7;;;;;;;23.76;56.37109;953.3981;;;;
2019/06/05 09:09:05;;;;;;;9.7;7.3;;;;;;;23.49;56.13477;953.3317;;;;
2019/06/05 09:11:32;;;;;;;9.8;6.5;;;;;;;23.77;55.22266;953.2801;;;;
2019/06/05 09:13:58;;;;;;;9.3;6.2;;;;;;;23.9;54.68066;953.3194;;;;
2019/06/05 09:16:23;;;;;;;8.9;6.9;;;;;;;23.68;55.62598;953.2917;;;;
2019/06/05 09:18:48;;;;;;;7.8;6.7;;;;;;;23.97;54.83203;953.2732;;;;
2019/06/05 09:21:13;;;;;;;8.9;6.6;;;;;;;23.97;55.54395;953.2725;;;;
2019/06/05 09:23:38;;;;;;;7.1;6.4;;;;;;;23.98;56.51758;953.2829;;;;
2019/06/05 09:26:05;;;;;;;9.8;7;;;;;;;24.13;54.82813;953.3054;;;;
2019/06/05 09:28:30;;;;;;;8.1;5.9;;;;;;;24.35;54.42676;953.2772;;;;
2019/06/05 09:30:55;;;;;;;12.1;6.4;;;;;;;24.45;54.71191;953.282;;;;
2019/06/05 09:33:20;;;;;;;11.1;7.6;;;;;;;24.49;55.96484;953.296;;;;
2019/06/05 09:35:46;;;;;;;9.5;6.7;;;;;;;24.49;55.79883;953.3036;;;;
2019/06/05 09:38:11;;;;;;;9.3;6.5;;;;;;;24.52;55.25488;953.2498;;;;
2019/06/05 09:40:36;;;;;;;8.9;6.4;;;;;;;24.61;53.87598;953.2219;;;;
2019/06/05 09:43:01;;;;;;;9.6;6.1;;;;;;;24.59;55.63281;953.209;;;;
2019/06/05 09:45:26;;;;;;;10.7;6.3;;;;;;;24.71;54.4834;953.1573;;;;
2019/06/05 09:47:52;;;;;;;9.1;6;;;;;;;24.77;55.49902;953.093;;;;
2019/06/05 09:50:17;;;;;;;9.6;6;;;;;;;24.82;54.3291;953.1074;;;;
2019/06/05 09:52:42;;;;;;;8.3;5.5;;;;;;;24.88;55.02734;953.1125;;;;
2019/06/05 09:55:07;;;;;;;9.1;6.1;;;;;;;25.1;54.53027;953.038;;;;
2019/06/05 09:57:32;;;;;;;8.2;6;;;;;;;25.08;56.0625;953.0897;;;;
2019/06/05 09:59:57;;;;;;;9.4;6.5;;;;;;;25.06;53.75195;953.0441;;;;
2019/06/05 10:02:22;;;;;;;6.6;5.6;;;;;;;25.13;54.08105;952.9731;;;;
2019/06/05 10:04:47;;;;;;;9.8;5.8;;;;;;;25.26;54.88281;952.9595;;;;
2019/06/05 10:07:12;;;;;;;9.4;6.1;;;;;;;25.31;54.68652;952.9573;;;;
2019/06/05 10:09:37;;;;;;;8.5;5.4;;;;;;;25.36;54.50293;952.9779;;;;
2019/06/05 10:12:02;;;;;;;8.3;5.7;;;;;;;25.51;53.43848;952.9358;;;;
2019/06/05 10:14:29;;;;;;;8.6;5.5;;;;;;;25.63;53.36816;952.9068;;;;
2019/06/05 10:16:54;;;;;;;9.3;5;;;;;;;25.58;53.0293;952.9194;;;;
2019/06/05 10:19:20;;;;;;;7;5.6;;;;;;;25.74;52.68945;952.8811;;;;
2019/06/05 10:21:45;;;;;;;8;5.5;;;;;;;25.83;53.11816;952.9056;;;;
2019/06/05 10:24:10;;;;;;;5.2;4.7;;;;;;;25.88;52.86133;952.8133;;;;
2019/06/05 10:26:35;;;;;;;8.2;5.2;;;;;;;25.9;51.95898;952.8293;;;;
2019/06/05 10:29:01;;;;;;;6.3;5;;;;;;;25.93;52.05664;952.7924;;;;
2019/06/05 10:31:26;;;;;;;7;5.2;;;;;;;25.73;51.9502;952.8039;;;;
2019/06/05 10:33:51;;;;;;;7.9;4.3;;;;;;;26.12;49.59961;952.717;;;;
2019/06/05 10:36:17;;;;;;;5.2;4.3;;;;;;;26.11;51.39844;952.69;;;;
2019/06/05 10:38:42;;;;;;;6.9;4.1;;;;;;;26.21;49.88379;952.6697;;;;
2019/06/05 10:41:07;;;;;;;5.4;4.2;;;;;;;26.22;50.76758;952.6967;;;;
2019/06/05 10:43:33;;;;;;;8.2;4.1;;;;;;;26.34;48.50195;952.7111;;;;
2019/06/05 10:45:58;;;;;;;4.8;3.6;;;;;;;26.46;47.53613;952.7054;;;;
2019/06/05 10:48:23;;;;;;;4.5;3.4;;;;;;;26.62;47.80371;952.6719;;;;
2019/06/05 10:50:48;;;;;;;6.3;3.4;;;;;;;26.61;46.64648;952.6779;;;;
2019/06/05 10:53:13;;;;;;;6.8;3.3;;;;;;;26.71;44.86523;952.6239;;;;
2019/06/05 10:55:38;;;;;;;6.6;3.8;;;;;;;26.68;46.27051;952.6199;;;;
2019/06/05 10:58:03;;;;;;;6.5;3.5;;;;;;;26.59;46.46484;952.5689;;;;
2019/06/05 11:00:28;;;;;;;3.9;3.2;;;;;;;26.72;45.46387;952.5316;;;;
2019/06/05 11:02:53;;;;;;;6.8;3.6;;;;;;;26.7;44.98438;952.5059;;;;
2019/06/05 11:05:19;;;;;;;6.3;3.7;;;;;;;26.58;46.34473;952.4355;;;;
2019/06/05 11:07:44;;;;;;;3.9;3.4;;;;;;;26.88;46.66113;952.4376;;;;
2019/06/05 11:10:09;;;;;;;8;4.1;;;;;;;26.95;48.0791;952.4207;;;;
2019/06/05 11:12:34;;;;;;;5.2;3.4;;;;;;;27.12;47.80957;952.3652;;;;
2019/06/05 11:15:00;;;;;;;6;3.6;;;;;;;27.29;46.09473;952.3405;;;;
2019/06/05 11:17:24;;;;;;;5.5;3.6;;;;;;;27.28;45.38867;952.3384;;;;
2019/06/05 11:19:49;;;;;;;5.4;3.2;;;;;;;27.42;45.57031;952.3167;;;;
2019/06/05 11:22:15;;;;;;;5.5;2.9;;;;;;;27.46;44.55859;952.2706;;;;
2019/06/05 11:24:41;;;;;;;5.1;3.4;;;;;;;27.45;44.99902;952.2965;;;;
2019/06/05 11:27:06;;;;;;;4.1;3.3;;;;;;;27.68;43.80176;952.2972;;;;
2019/06/05 11:29:31;;;;;;;4.3;2.9;;;;;;;27.58;46.9375;952.3842;;;;
2019/06/05 11:31:56;;;;;;;4.7;3.1;;;;;;;27.74;43.67578;952.3401;;;;
2019/06/05 11:34:21;;;;;;;5.3;3.1;;;;;;;27.76;45.3418;952.3239;;;;
2019/06/05 11:36:46;;;;;;;4.5;3.3;;;;;;;27.73;43.54395;952.252;;;;
2019/06/05 11:39:11;;;;;;;4.3;2.6;;;;;;;27.81;42.50977;952.258;;;;
2019/06/05 11:41:36;;;;;;;3.8;2.6;;;;;;;27.9;40.41211;952.2905;;;;
2019/06/05 11:44:01;;;;;;;5.5;2.6;;;;;;;27.94;40.03223;952.2523;;;;
2019/06/05 11:46:27;;;;;;;6.1;2.6;;;;;;;27.79;41.74219;952.2446;;;;
2019/06/05 11:48:52;;;;;;;5.5;2.6;;;;;;;27.83;38.66992;952.2313;;;;
2019/06/05 11:51:17;;;;;;;5.1;2.3;;;;;;;28.01;37.94336;952.2092;;;;
2019/06/05 11:53:42;;;;;;;9;2.8;;;;;;;27.96;39.19629;952.1727;;;;
2019/06/05 11:56:09;;;;;;;4.9;2.4;;;;;;;28.17;37.72949;952.2017;;;;
2019/06/05 11:58:34;;;;;;;5.4;2.1;;;;;;;28.13;34.96973;952.1605;;;;
2019/06/05 12:00:59;;;;;;;2.8;1.6;;;;;;;28.13;32.4668;952.1672;;;;
2019/06/05 12:03:25;;;;;;;3.7;2.2;;;;;;;28.18;36.96289;952.1492;;;;
2019/06/05 12:05:50;;;;;;;4.1;2.3;;;;;;;28.4;37.47266;952.0961;;;;
2019/06/05 12:08:16;;;;;;;5.1;2.4;;;;;;;28.41;37.18555;952.0251;;;;
2019/06/05 12:10:41;;;;;;;3.6;2.4;;;;;;;28.61;38.0293;951.9877;;;;
2019/06/05 12:13:06;;;;;;;3.8;2.8;;;;;;;28.55;40.24219;952.05;;;;
2019/06/05 12:15:32;;;;;;;3.3;2.5;;;;;;;28.69;40.32715;952.0336;;;;
2019/06/05 12:17:58;;;;;;;3;2.7;;;;;;;28.87;40.90625;951.9706;;;;
2019/06/05 12:20:23;;;;;;;3.8;2.8;;;;;;;28.99;39.26172;951.9779;;;;
2019/06/05 12:22:49;;;;;;;3.9;2.6;;;;;;;29.37;36.34082;951.9819;;;;
2019/06/05 12:25:14;;;;;;;3.6;2.4;;;;;;;29.29;37.69141;951.905;;;;
2019/06/05 12:27:40;;;;;;;2.4;2.2;;;;;;;29.39;36.83496;951.8865;;;;
2019/06/05 12:30:05;;;;;;;3.9;2.3;;;;;;;29.64;35.30469;951.9755;;;;
2019/06/05 12:32:31;;;;;;;6.5;2.6;;;;;;;29.4;37.02734;951.8858;;;;
2019/06/05 12:34:56;;;;;;;4.2;2.4;;;;;;;29.52;36.58105;951.8901;;;;
2019/06/05 12:37:21;;;;;;;3.2;2.4;;;;;;;29.83;33.6123;951.846;;;;
2019/06/05 12:39:47;;;;;;;4.1;2.4;;;;;;;30.08;33.05371;951.8267;;;;
2019/06/05 12:42:12;;;;;;;2.8;2;;;;;;;29.9;33.04102;951.7525;;;;
2019/06/05 12:44:37;;;;;;;2.4;1.8;;;;;;;29.88;29.20313;951.7011;;;;
2019/06/05 12:47:02;;;;;;;6.5;2.1;;;;;;;29.7;31.01855;951.7062;;;;
2019/06/05 12:49:27;;;;;;;2;1.8;;;;;;;30.22;30.42871;951.6397;;;;
2019/06/05 12:51:52;;;;;;;2.3;2;;;;;;;29.86;33.50586;951.6103;;;;
2019/06/05 12:54:19;;;;;;;3.9;1.9;;;;;;;30.1;29.73535;951.5522;;;;
2019/06/05 12:56:44;;;;;;;2;1.7;;;;;;;30.38;30.12695;951.5094;;;;
2019/06/05 12:59:09;;;;;;;2.9;2;;;;;;;29.99;31.76074;951.5016;;;;
2019/06/05 13:01:34;;;;;;;3.6;1.8;;;;;;;30.4;30.83887;951.4902;;;;
2019/06/05 13:03:59;;;;;;;3.5;1.9;;;;;;;30.56;28.93457;951.4752;;;;
2019/06/05 13:06:24;;;;;;;2;1.6;;;;;;;29.96;30.44727;951.4;;;;
2019/06/05 13:08:49;;;;;;;3.5;1.5;;;;;;;30.28;27.38867;951.4721;;;;
2019/06/05 13:11:16;;;;;;;2.9;1.6;;;;;;;30.31;32.22852;951.4144;;;;
2019/06/05 13:13:42;;;;;;;3;1.6;;;;;;;30.47;27.56836;951.4213;;;;
2019/06/05 13:16:07;;;;;;;2;1.8;;;;;;;30.68;28.05078;951.3914;;;;
2019/06/05 13:18:32;;;;;;;2.9;1.7;;;;;;;30.49;30.31445;951.3307;;;;
2019/06/05 13:20:57;;;;;;;2.9;1.8;;;;;;;30.58;30.10352;951.3513;;;;
2019/06/05 13:23:24;;;;;;;2.7;1.8;;;;;;;30.65;29.72266;951.2965;;;;
2019/06/05 13:25:49;;;;;;;3.7;2;;;;;;;30.65;31.7832;951.2647;;;;
2019/06/05 13:28:14;;;;;;;2.8;2.2;;;;;;;30.59;32.44141;951.243;;;;
2019/06/05 13:30:39;;;;;;;2.6;1.9;;;;;;;30.71;27.43848;951.1472;;;;
2019/06/05 13:33:04;;;;;;;2.4;1.6;;;;;;;30.64;27.26563;951.1713;;;;
2019/06/05 13:35:30;;;;;;;2.2;1.6;;;;;;;30.59;27.10645;951.0892;;;;
2019/06/05 13:37:55;;;;;;;4.5;1.8;;;;;;;30.63;27.12012;951.115;;;;
2019/06/05 13:40:20;;;;;;;2.9;1.4;;;;;;;30.48;26.2207;951.0425;;;;
2019/06/05 13:42:45;;;;;;;3.1;1.4;;;;;;;30.54;26.22363;950.9839;;;;
2019/06/05 13:45:10;;;;;;;2.1;1.4;;;;;;;30.41;27.0957;950.9543;;;;
2019/06/05 13:47:35;;;;;;;2.9;1.4;;;;;;;30.53;26.31934;950.9002;;;;
2019/06/05 13:50:00;;;;;;;2.4;1.7;;;;;;;30.37;29.3916;950.8552;;;;
2019/06/05 13:52:25;;;;;;;1.9;1.7;;;;;;;30.86;27.71289;950.8353;;;;
2019/06/05 13:54:51;;;;;;;2.8;1.9;;;;;;;30.4;30.38086;950.8031;;;;
2019/06/05 13:57:16;;;;;;;2.2;1.6;;;;;;;30.39;28.79102;950.798;;;;
2019/06/05 13:59:41;;;;;;;2;1.6;;;;;;;30.39;25.79395;950.7543;;;;
2019/06/05 14:02:06;;;;;;;2.1;1.5;;;;;;;30.38;24.70996;950.8063;;;;
2019/06/05 14:04:31;;;;;;;4.6;1.6;;;;;;;30.22;25.6875;950.8453;;;;
2019/06/05 14:06:56;;;;;;;2.7;1.6;;;;;;;30.42;26.78223;950.7503;;;;
2019/06/05 14:09:22;;;;;;;2.8;1.5;;;;;;;30.46;30.6377;950.7219;;;;
2019/06/05 14:11:47;;;;;;;7.9;1.9;;;;;;;30.62;27.80664;950.6656;;;;
2019/06/05 14:14:16;;;;;;;4;2;;;;;;;30.44;29.69727;950.5919;;;;
2019/06/05 14:16:41;;;;;;;2.3;1.4;;;;;;;30.58;27.28613;950.5623;;;;